world map with PJB marked

PJB - Airport

This information may not be accurate or current and is not valid for navigation or flight planning. No warranty of fitness for any purpose is made or implied.

flag of Arizonaflag of United States

Donate via PayPal

Additional information is available on the NEW Great Circle Mapper

Location
City:  Payson, Arizona, United States
ICAO / IATA:KPAN / PJB
FAA:PAN

Details
Type:Airport (Airfield)
Use:Public/Civil
Latitude:34°15'25"N (34.256836)
Longitude:111°20'21"W (-111.339255)
Datum:WGS 1984
Elevation:5157 ft (1572 m)
Runways:1
Longest:5504 × 75 ft (1678 × 23 m)

Time
Timezone:UTC+27:08
Local Time:

Weather
METAR:KPAN  260035Z AUTO 25007KT 10SM VCTS CLR 30/10 A3013 RMK AO2 LTG DSNT NW

Related Locations
Nearby:
Farthest:RRG: 11381 mi / 18317 km
Plaine Corail, Rodrigues Island, MU

Find:

   beyond  
but within

Other Information
Maps:
Links:
Sources:

  

Sectional Chart

Flight Planning
at skyvector.com

 


Great Circle Mapper   Great Circle Mapper
Great Circle Mapper FAQ   Great Circle Mapper FAQ
  Karl's Home Page
KLSē   KLSē Home
   GC on Facebook
Airlines of the World   Airlines of the World
Donate via PayPal


Copyright © 2004-2014, Karl L. Swartz. All rights reserved.
All trademarks mentioned herein belong to their respective owners.

Please see credits for attribution and copyright information.

Karl Swartz <karl@kls2.com>
  Powered by FreeBSD
Valid HTML 4.01!
Labeled with ICRA
hCard Microformat
Geo Microformat